sensor_id;sensor_type;location;lat;lon;timestamp;temperature;humidity
11989;DHT22;6054;50.966;7.094;2023-07-29T00:01:26;27.90;66.00
11989;DHT22;6054;50.966;7.094;2023-07-29T00:03:52;28.10;65.50
11989;DHT22;6054;50.966;7.094;2023-07-29T00:06:19;28.00;65.50
11989;DHT22;6054;50.966;7.094;2023-07-29T00:08:46;28.10;65.70
11989;DHT22;6054;50.966;7.094;2023-07-29T00:11:12;28.10;65.70
11989;DHT22;6054;50.966;7.094;2023-07-29T00:13:41;27.90;65.40
11989;DHT22;6054;50.966;7.094;2023-07-29T00:16:07;28.10;65.80
11989;DHT22;6054;50.966;7.094;2023-07-29T00:18:34;27.90;65.60
11989;DHT22;6054;50.966;7.094;2023-07-29T00:21:01;27.90;65.70
11989;DHT22;6054;50.966;7.094;2023-07-29T00:23:28;27.90;65.80
11989;DHT22;6054;50.966;7.094;2023-07-29T00:25:55;27.90;66.10
11989;DHT22;6054;50.966;7.094;2023-07-29T00:28:22;27.90;65.60
11989;DHT22;6054;50.966;7.094;2023-07-29T00:30:50;28.00;65.70
11989;DHT22;6054;50.966;7.094;2023-07-29T00:33:17;28.00;65.70
11989;DHT22;6054;50.966;7.094;2023-07-29T00:35:45;27.80;65.40
11989;DHT22;6054;50.966;7.094;2023-07-29T00:38:12;27.80;65.70
11989;DHT22;6054;50.966;7.094;2023-07-29T00:40:38;27.80;65.70
11989;DHT22;6054;50.966;7.094;2023-07-29T00:43:05;27.90;65.80
11989;DHT22;6054;50.966;7.094;2023-07-29T00:45:32;27.80;65.90
11989;DHT22;6054;50.966;7.094;2023-07-29T00:48:01;27.80;65.90
11989;DHT22;6054;50.966;7.094;2023-07-29T00:50:29;27.90;66.30
11989;DHT22;6054;50.966;7.094;2023-07-29T00:52:57;27.80;66.30
11989;DHT22;6054;50.966;7.094;2023-07-29T00:55:24;27.80;66.00
11989;DHT22;6054;50.966;7.094;2023-07-29T00:57:51;27.80;66.10
11989;DHT22;6054;50.966;7.094;2023-07-29T01:00:20;27.90;66.10
11989;DHT22;6054;50.966;7.094;2023-07-29T01:02:47;27.80;66.30
11989;DHT22;6054;50.966;7.094;2023-07-29T01:05:16;27.70;66.20
11989;DHT22;6054;50.966;7.094;2023-07-29T01:07:49;27.80;66.60
11989;DHT22;6054;50.966;7.094;2023-07-29T01:10:26;27.70;66.50
11989;DHT22;6054;50.966;7.094;2023-07-29T01:13:04;28.00;66.80
11989;DHT22;6054;50.966;7.094;2023-07-29T01:15:36;27.70;66.20
11989;DHT22;6054;50.966;7.094;2023-07-29T01:18:11;27.70;66.50
11989;DHT22;6054;50.966;7.094;2023-07-29T01:20:44;27.80;66.50
11989;DHT22;6054;50.966;7.094;2023-07-29T01:23:12;27.60;66.40
11989;DHT22;6054;50.966;7.094;2023-07-29T01:25:41;27.80;66.10
11989;DHT22;6054;50.966;7.094;2023-07-29T01:28:07;27.70;66.10
11989;DHT22;6054;50.966;7.094;2023-07-29T01:30:39;27.90;66.50
11989;DHT22;6054;50.966;7.094;2023-07-29T01:33:10;27.70;66.60
11989;DHT22;6054;50.966;7.094;2023-07-29T01:35:42;27.70;66.70
11989;DHT22;6054;50.966;7.094;2023-07-29T01:38:17;27.70;66.80
11989;DHT22;6054;50.966;7.094;2023-07-29T01:40:46;27.80;66.90
11989;DHT22;6054;50.966;7.094;2023-07-29T01:43:14;27.70;67.50
11989;DHT22;6054;50.966;7.094;2023-07-29T01:45:41;27.80;65.70
11989;DHT22;6054;50.966;7.094;2023-07-29T01:48:08;27.60;66.10
11989;DHT22;6054;50.966;7.094;2023-07-29T01:50:35;27.70;65.90
11989;DHT22;6054;50.966;7.094;2023-07-29T01:53:02;27.60;66.10
11989;DHT22;6054;50.966;7.094;2023-07-29T01:55:29;27.80;66.20
11989;DHT22;6054;50.966;7.094;2023-07-29T01:57:57;27.60;66.00
11989;DHT22;6054;50.966;7.094;2023-07-29T02:00:24;27.70;66.50
11989;DHT22;6054;50.966;7.094;2023-07-29T02:02:51;27.80;66.00
11989;DHT22;6054;50.966;7.094;2023-07-29T02:05:18;27.60;65.90
11989;DHT22;6054;50.966;7.094;2023-07-29T02:07:44;27.70;65.90
11989;DHT22;6054;50.966;7.094;2023-07-29T02:10:11;27.60;66.30
11989;DHT22;6054;50.966;7.094;2023-07-29T02:12:38;27.30;66.20
11989;DHT22;6054;50.966;7.094;2023-07-29T02:15:07;27.30;66.50
11989;DHT22;6054;50.966;7.094;2023-07-29T02:17:35;27.30;67.10
11989;DHT22;6054;50.966;7.094;2023-07-29T02:20:02;27.30;66.30
11989;DHT22;6054;50.966;7.094;2023-07-29T02:22:29;27.00;66.30
11989;DHT22;6054;50.966;7.094;2023-07-29T02:24:56;26.90;66.50
11989;DHT22;6054;50.966;7.094;2023-07-29T02:27:22;26.70;66.50
11989;DHT22;6054;50.966;7.094;2023-07-29T02:29:57;26.60;67.60
11989;DHT22;6054;50.966;7.094;2023-07-29T02:32:25;26.50;67.30
11989;DHT22;6054;50.966;7.094;2023-07-29T02:34:52;26.60;66.70
11989;DHT22;6054;50.966;7.094;2023-07-29T02:37:19;26.40;66.50
11989;DHT22;6054;50.966;7.094;2023-07-29T02:39:46;26.40;67.90
11989;DHT22;6054;50.966;7.094;2023-07-29T04:09:24;26.40;70.10
11989;DHT22;6054;50.966;7.094;2023-07-29T04:11:51;26.70;69.40
11989;DHT22;6054;50.966;7.094;2023-07-29T04:14:18;26.70;68.90
11989;DHT22;6054;50.966;7.094;2023-07-29T04:16:45;26.50;69.10
11989;DHT22;6054;50.966;7.094;2023-07-29T04:19:11;26.70;68.80
11989;DHT22;6054;50.966;7.094;2023-07-29T04:21:38;26.50;68.60
11989;DHT22;6054;50.966;7.094;2023-07-29T04:24:05;26.60;68.80
11989;DHT22;6054;50.966;7.094;2023-07-29T04:26:33;26.50;69.20
11989;DHT22;6054;50.966;7.094;2023-07-29T04:29:00;26.50;69.00
11989;DHT22;6054;50.966;7.094;2023-07-29T04:31:27;26.80;69.70
11989;DHT22;6054;50.966;7.094;2023-07-29T04:33:53;26.50;69.40
11989;DHT22;6054;50.966;7.094;2023-07-29T04:36:20;26.50;69.10
11989;DHT22;6054;50.966;7.094;2023-07-29T04:38:47;26.50;69.40
11989;DHT22;6054;50.966;7.094;2023-07-29T04:41:13;26.50;69.20
11989;DHT22;6054;50.966;7.094;2023-07-29T04:43:42;26.80;69.40
11989;DHT22;6054;50.966;7.094;2023-07-29T04:46:08;26.80;68.70
11989;DHT22;6054;50.966;7.094;2023-07-29T04:48:35;26.60;69.50
11989;DHT22;6054;50.966;7.094;2023-07-29T04:51:02;26.50;68.10
11989;DHT22;6054;50.966;7.094;2023-07-29T04:53:29;26.50;69.00
11989;DHT22;6054;50.966;7.094;2023-07-29T04:55:55;26.50;68.80
11989;DHT22;6054;50.966;7.094;2023-07-29T04:58:22;26.50;68.70
11989;DHT22;6054;50.966;7.094;2023-07-29T05:00:50;26.50;68.70
11989;DHT22;6054;50.966;7.094;2023-07-29T05:03:17;26.50;68.50
11989;DHT22;6054;50.966;7.094;2023-07-29T05:05:44;26.50;68.80
11989;DHT22;6054;50.966;7.094;2023-07-29T05:08:11;26.50;69.10
11989;DHT22;6054;50.966;7.094;2023-07-29T05:10:37;26.50;69.00
11989;DHT22;6054;50.966;7.094;2023-07-29T05:13:04;26.70;69.10
11989;DHT22;6054;50.966;7.094;2023-07-29T05:15:31;26.70;69.10
11989;DHT22;6054;50.966;7.094;2023-07-29T05:17:59;26.50;69.50
11989;DHT22;6054;50.966;7.094;2023-07-29T05:20:26;26.50;69.10
11989;DHT22;6054;50.966;7.094;2023-07-29T05:22:52;26.70;69.30
11989;DHT22;6054;50.966;7.094;2023-07-29T05:25:19;26.50;68.90
11989;DHT22;6054;50.966;7.094;2023-07-29T05:27:46;26.70;69.60
11989;DHT22;6054;50.966;7.094;2023-07-29T05:30:13;26.40;69.00
11989;DHT22;6054;50.966;7.094;2023-07-29T05:32:39;26.50;69.10
11989;DHT22;6054;50.966;7.094;2023-07-29T05:35:08;26.50;69.20
11989;DHT22;6054;50.966;7.094;2023-07-29T05:37:37;26.50;69.30
11989;DHT22;6054;50.966;7.094;2023-07-29T05:40:05;26.50;70.00
11989;DHT22;6054;50.966;7.094;2023-07-29T05:42:32;26.50;69.80
11989;DHT22;6054;50.966;7.094;2023-07-29T05:44:59;26.50;68.90
11989;DHT22;6054;50.966;7.094;2023-07-29T05:47:26;26.60;69.70
11989;DHT22;6054;50.966;7.094;2023-07-29T05:49:53;26.50;68.30
11989;DHT22;6054;50.966;7.094;2023-07-29T05:52:21;26.40;70.00
11989;DHT22;6054;50.966;7.094;2023-07-29T05:54:48;26.50;69.70
11989;DHT22;6054;50.966;7.094;2023-07-29T05:57:14;26.50;69.80
11989;DHT22;6054;50.966;7.094;2023-07-29T05:59:41;26.50;69.80
11989;DHT22;6054;50.966;7.094;2023-07-29T06:02:08;26.80;69.90
11989;DHT22;6054;50.966;7.094;2023-07-29T06:04:35;26.50;69.50
11989;DHT22;6054;50.966;7.094;2023-07-29T06:07:01;26.70;69.70
11989;DHT22;6054;50.966;7.094;2023-07-29T06:09:29;26.60;69.60
11989;DHT22;6054;50.966;7.094;2023-07-29T06:11:56;26.50;69.90
11989;DHT22;6054;50.966;7.094;2023-07-29T06:14:23;26.50;69.80
11989;DHT22;6054;50.966;7.094;2023-07-29T06:16:50;26.80;70.00
11989;DHT22;6054;50.966;7.094;2023-07-29T06:19:18;26.60;70.00
11989;DHT22;6054;50.966;7.094;2023-07-29T06:21:44;26.70;70.10
11989;DHT22;6054;50.966;7.094;2023-07-29T06:24:11;26.70;70.20
11989;DHT22;6054;50.966;7.094;2023-07-29T06:26:39;26.60;70.00
11989;DHT22;6054;50.966;7.094;2023-07-29T06:29:06;26.60;70.10
11989;DHT22;6054;50.966;7.094;2023-07-29T06:31:33;26.70;70.10
11989;DHT22;6054;50.966;7.094;2023-07-29T06:33:59;26.60;69.90
11989;DHT22;6054;50.966;7.094;2023-07-29T06:36:26;26.90;70.20
11989;DHT22;6054;50.966;7.094;2023-07-29T06:38:53;26.60;69.70
11989;DHT22;6054;50.966;7.094;2023-07-29T06:41:20;26.70;69.60
11989;DHT22;6054;50.966;7.094;2023-07-29T06:43:48;26.60;70.10
11989;DHT22;6054;50.966;7.094;2023-07-29T06:46:15;26.60;69.20
11989;DHT22;6054;50.966;7.094;2023-07-29T06:48:41;26.70;69.60
11989;DHT22;6054;50.966;7.094;2023-07-29T06:51:08;26.60;69.10
11989;DHT22;6054;50.966;7.094;2023-07-29T06:53:35;26.60;69.20
11989;DHT22;6054;50.966;7.094;2023-07-29T06:56:02;26.60;68.60
11989;DHT22;6054;50.966;7.094;2023-07-29T06:58:28;26.50;67.90
11989;DHT22;6054;50.966;7.094;2023-07-29T07:00:57;26.50;67.00
11989;DHT22;6054;50.966;7.094;2023-07-29T07:03:23;26.60;66.60
11989;DHT22;6054;50.966;7.094;2023-07-29T07:05:51;26.50;67.10
11989;DHT22;6054;50.966;7.094;2023-07-29T07:08:17;26.50;67.20
11989;DHT22;6054;50.966;7.094;2023-07-29T07:10:46;26.60;67.00
11989;DHT22;6054;50.966;7.094;2023-07-29T07:13:13;26.40;68.90
11989;DHT22;6054;50.966;7.094;2023-07-29T07:15:39;26.30;67.20
11989;DHT22;6054;50.966;7.094;2023-07-29T07:18:08;26.60;69.10
11989;DHT22;6054;50.966;7.094;2023-07-29T07:20:35;26.30;68.20
11989;DHT22;6054;50.966;7.094;2023-07-29T07:23:02;26.30;68.40
11989;DHT22;6054;50.966;7.094;2023-07-29T07:25:30;26.40;68.90
11989;DHT22;6054;50.966;7.094;2023-07-29T07:27:57;26.40;68.00
11989;DHT22;6054;50.966;7.094;2023-07-29T07:30:24;26.70;68.70
11989;DHT22;6054;50.966;7.094;2023-07-29T07:32:51;26.70;69.30
11989;DHT22;6054;50.966;7.094;2023-07-29T07:35:19;26.80;69.30
11989;DHT22;6054;50.966;7.094;2023-07-29T07:37:46;26.80;68.60
11989;DHT22;6054;50.966;7.094;2023-07-29T07:40:13;26.70;68.50
11989;DHT22;6054;50.966;7.094;2023-07-29T07:42:39;26.70;68.50
11989;DHT22;6054;50.966;7.094;2023-07-29T07:45:06;26.70;67.60
11989;DHT22;6054;50.966;7.094;2023-07-29T07:47:33;26.70;68.80
11989;DHT22;6054;50.966;7.094;2023-07-29T07:50:00;26.80;68.60
11989;DHT22;6054;50.966;7.094;2023-07-29T07:52:28;26.70;67.90
11989;DHT22;6054;50.966;7.094;2023-07-29T07:54:55;26.80;68.00
11989;DHT22;6054;50.966;7.094;2023-07-29T07:57:22;27.00;68.60
11989;DHT22;6054;50.966;7.094;2023-07-29T07:59:48;26.90;68.50
11989;DHT22;6054;50.966;7.094;2023-07-29T08:02:19;26.90;68.60
11989;DHT22;6054;50.966;7.094;2023-07-29T08:04:45;27.00;68.20
11989;DHT22;6054;50.966;7.094;2023-07-29T08:07:12;26.80;68.50
11989;DHT22;6054;50.966;7.094;2023-07-29T08:09:41;26.80;68.40
11989;DHT22;6054;50.966;7.094;2023-07-29T08:12:08;26.80;68.30
11989;DHT22;6054;50.966;7.094;2023-07-29T08:14:35;26.80;67.90
11989;DHT22;6054;50.966;7.094;2023-07-29T08:17:01;27.00;68.60
11989;DHT22;6054;50.966;7.094;2023-07-29T08:19:28;26.90;67.80
11989;DHT22;6054;50.966;7.094;2023-07-29T08:21:55;26.90;68.10
11989;DHT22;6054;50.966;7.094;2023-07-29T08:24:22;26.90;68.10
11989;DHT22;6054;50.966;7.094;2023-07-29T08:26:50;27.10;67.90
11989;DHT22;6054;50.966;7.094;2023-07-29T08:29:17;27.00;68.00
11989;DHT22;6054;50.966;7.094;2023-07-29T08:31:44;27.10;67.10
11989;DHT22;6054;50.966;7.094;2023-07-29T08:34:10;27.10;66.60
11989;DHT22;6054;50.966;7.094;2023-07-29T08:36:37;27.40;66.50
11989;DHT22;6054;50.966;7.094;2023-07-29T08:39:04;27.20;66.00
11989;DHT22;6054;50.966;7.094;2023-07-29T08:41:34;27.10;64.80
11989;DHT22;6054;50.966;7.094;2023-07-29T08:44:09;27.40;66.30
11989;DHT22;6054;50.966;7.094;2023-07-29T08:46:36;27.20;67.10
11989;DHT22;6054;50.966;7.094;2023-07-29T08:49:08;27.10;66.20
11989;DHT22;6054;50.966;7.094;2023-07-29T08:51:44;27.40;65.30
11989;DHT22;6054;50.966;7.094;2023-07-29T08:54:12;27.20;66.50
11989;DHT22;6054;50.966;7.094;2023-07-29T08:56:40;27.50;67.40
11989;DHT22;6054;50.966;7.094;2023-07-29T08:59:10;27.30;66.90
11989;DHT22;6054;50.966;7.094;2023-07-29T09:01:38;27.30;65.50
11989;DHT22;6054;50.966;7.094;2023-07-29T09:04:05;27.30;62.90
11989;DHT22;6054;50.966;7.094;2023-07-29T09:06:32;27.50;65.30
11989;DHT22;6054;50.966;7.094;2023-07-29T09:09:00;27.30;66.30
11989;DHT22;6054;50.966;7.094;2023-07-29T09:11:28;27.30;66.50
11989;DHT22;6054;50.966;7.094;2023-07-29T09:13:56;27.20;65.90
11989;DHT22;6054;50.966;7.094;2023-07-29T09:16:24;27.20;66.20
11989;DHT22;6054;50.966;7.094;2023-07-29T09:18:51;27.20;66.90
11989;DHT22;6054;50.966;7.094;2023-07-29T09:21:23;27.20;66.70
11989;DHT22;6054;50.966;7.094;2023-07-29T09:23:52;27.30;67.30
11989;DHT22;6054;50.966;7.094;2023-07-29T09:26:25;27.30;67.50
11989;DHT22;6054;50.966;7.094;2023-07-29T09:28:53;27.30;66.90
11989;DHT22;6054;50.966;7.094;2023-07-29T09:31:21;27.50;66.80
11989;DHT22;6054;50.966;7.094;2023-07-29T09:33:55;27.60;66.80
11989;DHT22;6054;50.966;7.094;2023-07-29T09:36:22;27.60;66.70
11989;DHT22;6054;50.966;7.094;2023-07-29T09:38:52;27.40;66.00
11989;DHT22;6054;50.966;7.094;2023-07-29T09:41:19;27.40;66.50
11989;DHT22;6054;50.966;7.094;2023-07-29T09:43:48;27.40;66.10
11989;DHT22;6054;50.966;7.094;2023-07-29T09:46:23;27.40;66.30
11989;DHT22;6054;50.966;7.094;2023-07-29T09:48:53;27.40;65.80
11989;DHT22;6054;50.966;7.094;2023-07-29T09:51:20;27.50;65.60
11989;DHT22;6054;50.966;7.094;2023-07-29T09:53:47;27.40;65.40
11989;DHT22;6054;50.966;7.094;2023-07-29T09:56:15;27.50;66.20
11989;DHT22;6054;50.966;7.094;2023-07-29T09:58:43;27.50;65.60
11989;DHT22;6054;50.966;7.094;2023-07-29T10:01:11;27.30;65.50
11989;DHT22;6054;50.966;7.094;2023-07-29T10:03:38;27.30;65.80
11989;DHT22;6054;50.966;7.094;2023-07-29T10:06:07;27.30;66.00
11989;DHT22;6054;50.966;7.094;2023-07-29T10:08:34;27.30;66.40
11989;DHT22;6054;50.966;7.094;2023-07-29T10:11:05;27.50;66.70
11989;DHT22;6054;50.966;7.094;2023-07-29T10:13:33;27.40;66.70
11989;DHT22;6054;50.966;7.094;2023-07-29T10:16:00;27.30;66.60
11989;DHT22;6054;50.966;7.094;2023-07-29T10:18:28;27.40;66.40
11989;DHT22;6054;50.966;7.094;2023-07-29T10:20:57;27.40;67.60
11989;DHT22;6054;50.966;7.094;2023-07-29T10:23:27;27.60;67.00
11989;DHT22;6054;50.966;7.094;2023-07-29T10:25:59;27.50;66.70
11989;DHT22;6054;50.966;7.094;2023-07-29T10:28:29;27.60;66.40
11989;DHT22;6054;50.966;7.094;2023-07-29T10:30:57;27.70;66.00
11989;DHT22;6054;50.966;7.094;2023-07-29T10:33:24;27.70;64.50
11989;DHT22;6054;50.966;7.094;2023-07-29T10:35:52;27.70;64.70
11989;DHT22;6054;50.966;7.094;2023-07-29T10:38:20;27.90;64.70
11989;DHT22;6054;50.966;7.094;2023-07-29T10:40:52;27.70;64.40
11989;DHT22;6054;50.966;7.094;2023-07-29T10:43:25;27.90;64.00
11989;DHT22;6054;50.966;7.094;2023-07-29T10:45:52;27.80;63.40
11989;DHT22;6054;50.966;7.094;2023-07-29T10:48:41;27.60;62.40
11989;DHT22;6054;50.966;7.094;2023-07-29T10:51:25;27.60;63.30
11989;DHT22;6054;50.966;7.094;2023-07-29T10:53:53;27.60;62.80
11989;DHT22;6054;50.966;7.094;2023-07-29T10:56:32;27.60;62.60
11989;DHT22;6054;50.966;7.094;2023-07-29T10:59:22;27.70;62.60
11989;DHT22;6054;50.966;7.094;2023-07-29T11:01:51;27.60;63.20
11989;DHT22;6054;50.966;7.094;2023-07-29T11:04:25;27.60;63.40
11989;DHT22;6054;50.966;7.094;2023-07-29T11:07:24;27.60;64.20
11989;DHT22;6054;50.966;7.094;2023-07-29T11:10:01;27.60;64.00
11989;DHT22;6054;50.966;7.094;2023-07-29T11:12:37;27.60;64.40
11989;DHT22;6054;50.966;7.094;2023-07-29T11:15:11;27.80;64.00
11989;DHT22;6054;50.966;7.094;2023-07-29T11:17:40;27.60;63.80
11989;DHT22;6054;50.966;7.094;2023-07-29T11:20:07;27.80;64.10
11989;DHT22;6054;50.966;7.094;2023-07-29T11:22:36;27.70;64.00
11989;DHT22;6054;50.966;7.094;2023-07-29T11:25:03;27.70;64.00
11989;DHT22;6054;50.966;7.094;2023-07-29T11:27:31;27.70;63.60
11989;DHT22;6054;50.966;7.094;2023-07-29T11:30:00;27.70;62.30
11989;DHT22;6054;50.966;7.094;2023-07-29T11:32:31;27.70;62.60
11989;DHT22;6054;50.966;7.094;2023-07-29T11:35:02;27.80;62.30
11989;DHT22;6054;50.966;7.094;2023-07-29T11:37:29;27.90;62.70
11989;DHT22;6054;50.966;7.094;2023-07-29T11:39:56;27.80;62.10
11989;DHT22;6054;50.966;7.094;2023-07-29T11:42:24;27.70;62.20
11989;DHT22;6054;50.966;7.094;2023-07-29T11:44:51;27.90;62.00
11989;DHT22;6054;50.966;7.094;2023-07-29T11:47:19;27.70;61.80
11989;DHT22;6054;50.966;7.094;2023-07-29T11:49:46;27.80;61.70
11989;DHT22;6054;50.966;7.094;2023-07-29T11:52:14;27.80;62.40
11989;DHT22;6054;50.966;7.094;2023-07-29T11:54:44;28.00;62.70
11989;DHT22;6054;50.966;7.094;2023-07-29T11:57:12;27.90;63.20
11989;DHT22;6054;50.966;7.094;2023-07-29T11:59:40;28.20;63.60
11989;DHT22;6054;50.966;7.094;2023-07-29T12:02:10;28.30;62.50
11989;DHT22;6054;50.966;7.094;2023-07-29T12:04:40;28.20;62.30
11989;DHT22;6054;50.966;7.094;2023-07-29T12:07:07;28.30;62.00
11989;DHT22;6054;50.966;7.094;2023-07-29T12:09:35;28.20;61.10
11989;DHT22;6054;50.966;7.094;2023-07-29T12:12:03;28.20;62.10
11989;DHT22;6054;50.966;7.094;2023-07-29T12:14:30;28.20;62.30
11989;DHT22;6054;50.966;7.094;2023-07-29T12:16:59;28.30;62.50
11989;DHT22;6054;50.966;7.094;2023-07-29T12:19:31;28.30;63.10
11989;DHT22;6054;50.966;7.094;2023-07-29T12:22:01;28.60;62.00
11989;DHT22;6054;50.966;7.094;2023-07-29T12:24:29;28.50;62.20
11989;DHT22;6054;50.966;7.094;2023-07-29T12:26:56;28.40;62.20
11989;DHT22;6054;50.966;7.094;2023-07-29T12:29:23;28.50;61.60
11989;DHT22;6054;50.966;7.094;2023-07-29T12:31:57;28.50;61.80
11989;DHT22;6054;50.966;7.094;2023-07-29T12:34:26;28.90;61.90
11989;DHT22;6054;50.966;7.094;2023-07-29T12:36:54;28.90;62.10
11989;DHT22;6054;50.966;7.094;2023-07-29T12:39:24;28.80;61.80
11989;DHT22;6054;50.966;7.094;2023-07-29T12:41:52;28.90;60.70
11989;DHT22;6054;50.966;7.094;2023-07-29T12:44:19;28.90;60.90
11989;DHT22;6054;50.966;7.094;2023-07-29T12:46:46;28.90;60.70
11989;DHT22;6054;50.966;7.094;2023-07-29T12:49:13;29.10;59.70
11989;DHT22;6054;50.966;7.094;2023-07-29T12:51:40;29.20;59.20
11989;DHT22;6054;50.966;7.094;2023-07-29T12:54:07;29.20;58.30
11989;DHT22;6054;50.966;7.094;2023-07-29T12:56:35;29.30;57.60
11989;DHT22;6054;50.966;7.094;2023-07-29T12:59:02;29.40;57.50
11989;DHT22;6054;50.966;7.094;2023-07-29T13:01:29;29.60;57.20
11989;DHT22;6054;50.966;7.094;2023-07-29T13:03:56;29.40;57.00
11989;DHT22;6054;50.966;7.094;2023-07-29T13:06:23;29.50;56.60
11989;DHT22;6054;50.966;7.094;2023-07-29T13:08:50;29.50;57.20
11989;DHT22;6054;50.966;7.094;2023-07-29T13:11:17;29.40;56.80
11989;DHT22;6054;50.966;7.094;2023-07-29T13:13:45;29.40;57.30
11989;DHT22;6054;50.966;7.094;2023-07-29T13:16:12;29.40;56.30
11989;DHT22;6054;50.966;7.094;2023-07-29T13:18:39;29.40;56.50
11989;DHT22;6054;50.966;7.094;2023-07-29T13:21:06;29.30;56.30
11989;DHT22;6054;50.966;7.094;2023-07-29T13:23:32;29.30;55.70
11989;DHT22;6054;50.966;7.094;2023-07-29T13:25:59;29.40;55.90
11989;DHT22;6054;50.966;7.094;2023-07-29T13:28:26;29.40;56.10
11989;DHT22;6054;50.966;7.094;2023-07-29T13:30:54;29.60;56.40
11989;DHT22;6054;50.966;7.094;2023-07-29T13:33:21;29.40;55.70
11989;DHT22;6054;50.966;7.094;2023-07-29T13:35:48;29.60;56.00
11989;DHT22;6054;50.966;7.094;2023-07-29T13:38:14;29.40;55.50
11989;DHT22;6054;50.966;7.094;2023-07-29T13:40:41;29.50;55.80
11989;DHT22;6054;50.966;7.094;2023-07-29T13:43:08;29.50;55.70
11989;DHT22;6054;50.966;7.094;2023-07-29T13:45:35;29.50;56.00
11989;DHT22;6054;50.966;7.094;2023-07-29T13:48:03;29.30;56.20
11989;DHT22;6054;50.966;7.094;2023-07-29T13:50:30;29.30;56.50
11989;DHT22;6054;50.966;7.094;2023-07-29T13:52:57;29.50;57.00
11989;DHT22;6054;50.966;7.094;2023-07-29T13:55:24;29.30;57.30
11989;DHT22;6054;50.966;7.094;2023-07-29T13:57:52;29.40;57.20
11989;DHT22;6054;50.966;7.094;2023-07-29T14:00:19;29.30;57.80
11989;DHT22;6054;50.966;7.094;2023-07-29T14:02:46;29.20;58.00
11989;DHT22;6054;50.966;7.094;2023-07-29T14:05:14;29.10;58.20
11989;DHT22;6054;50.966;7.094;2023-07-29T14:07:41;29.10;58.90
11989;DHT22;6054;50.966;7.094;2023-07-29T14:10:07;29.10;58.40
11989;DHT22;6054;50.966;7.094;2023-07-29T14:12:34;29.00;59.30
11989;DHT22;6054;50.966;7.094;2023-07-29T14:15:01;28.90;58.80
11989;DHT22;6054;50.966;7.094;2023-07-29T14:17:28;28.90;59.20
11989;DHT22;6054;50.966;7.094;2023-07-29T14:19:55;29.10;60.00
11989;DHT22;6054;50.966;7.094;2023-07-29T14:22:23;28.80;59.20
11989;DHT22;6054;50.966;7.094;2023-07-29T14:24:50;28.80;60.00
11989;DHT22;6054;50.966;7.094;2023-07-29T14:27:16;29.00;60.20
11989;DHT22;6054;50.966;7.094;2023-07-29T14:29:43;28.80;60.90
11989;DHT22;6054;50.966;7.094;2023-07-29T14:32:10;29.00;61.50
11989;DHT22;6054;50.966;7.094;2023-07-29T14:34:36;29.00;61.80
11989;DHT22;6054;50.966;7.094;2023-07-29T14:37:04;29.00;61.90
11989;DHT22;6054;50.966;7.094;2023-07-29T14:39:33;28.90;62.30
11989;DHT22;6054;50.966;7.094;2023-07-29T14:41:59;28.90;61.80
11989;DHT22;6054;50.966;7.094;2023-07-29T14:44:26;29.00;61.40
11989;DHT22;6054;50.966;7.094;2023-07-29T14:46:53;29.30;61.00
11989;DHT22;6054;50.966;7.094;2023-07-29T14:49:20;29.20;60.40
11989;DHT22;6054;50.966;7.094;2023-07-29T14:51:47;29.20;59.90
11989;DHT22;6054;50.966;7.094;2023-07-29T14:54:14;29.20;59.20
11989;DHT22;6054;50.966;7.094;2023-07-29T14:56:42;29.30;58.70
11989;DHT22;6054;50.966;7.094;2023-07-29T14:59:09;29.30;58.10
11989;DHT22;6054;50.966;7.094;2023-07-29T15:01:35;29.30;58.30
11989;DHT22;6054;50.966;7.094;2023-07-29T15:04:03;29.50;59.40
11989;DHT22;6054;50.966;7.094;2023-07-29T15:06:29;29.30;59.40
11989;DHT22;6054;50.966;7.094;2023-07-29T15:08:56;29.30;59.50
11989;DHT22;6054;50.966;7.094;2023-07-29T15:11:23;29.30;59.70
11989;DHT22;6054;50.966;7.094;2023-07-29T15:13:51;29.30;59.40
11989;DHT22;6054;50.966;7.094;2023-07-29T15:16:18;29.30;59.50
11989;DHT22;6054;50.966;7.094;2023-07-29T15:18:45;29.30;59.70
11989;DHT22;6054;50.966;7.094;2023-07-29T15:21:12;29.30;59.70
11989;DHT22;6054;50.966;7.094;2023-07-29T15:23:39;29.30;58.80
11989;DHT22;6054;50.966;7.094;2023-07-29T15:26:05;29.30;59.00
11989;DHT22;6054;50.966;7.094;2023-07-29T15:28:32;29.40;58.50
11989;DHT22;6054;50.966;7.094;2023-07-29T15:31:00;29.30;58.10
11989;DHT22;6054;50.966;7.094;2023-07-29T15:33:27;29.40;58.10
11989;DHT22;6054;50.966;7.094;2023-07-29T15:35:54;29.40;58.40
11989;DHT22;6054;50.966;7.094;2023-07-29T15:38:21;29.40;58.20
11989;DHT22;6054;50.966;7.094;2023-07-29T15:40:48;29.40;58.20
11989;DHT22;6054;50.966;7.094;2023-07-29T15:43:17;29.50;57.50
11989;DHT22;6054;50.966;7.094;2023-07-29T15:45:44;29.60;57.20
11989;DHT22;6054;50.966;7.094;2023-07-29T15:48:12;29.50;56.60
11989;DHT22;6054;50.966;7.094;2023-07-29T15:50:39;29.80;56.60
11989;DHT22;6054;50.966;7.094;2023-07-29T15:53:06;29.60;54.80
11989;DHT22;6054;50.966;7.094;2023-07-29T15:55:33;29.80;56.20
11989;DHT22;6054;50.966;7.094;2023-07-29T15:58:00;29.60;56.20
11989;DHT22;6054;50.966;7.094;2023-07-29T16:00:26;29.60;55.80
11989;DHT22;6054;50.966;7.094;2023-07-29T16:02:54;29.50;56.00
11989;DHT22;6054;50.966;7.094;2023-07-29T16:05:22;29.60;55.80
11989;DHT22;6054;50.966;7.094;2023-07-29T16:07:49;29.60;56.20
11989;DHT22;6054;50.966;7.094;2023-07-29T16:10:16;29.80;57.10
11989;DHT22;6054;50.966;7.094;2023-07-29T16:12:42;29.60;57.80
11989;DHT22;6054;50.966;7.094;2023-07-29T16:15:10;29.50;57.50
11989;DHT22;6054;50.966;7.094;2023-07-29T16:17:37;29.60;58.10
11989;DHT22;6054;50.966;7.094;2023-07-29T16:20:04;29.50;57.80
11989;DHT22;6054;50.966;7.094;2023-07-29T16:22:33;29.40;58.00
11989;DHT22;6054;50.966;7.094;2023-07-29T16:25:00;29.40;57.60
11989;DHT22;6054;50.966;7.094;2023-07-29T16:27:27;29.40;57.50
11989;DHT22;6054;50.966;7.094;2023-07-29T16:29:57;29.70;58.00
11989;DHT22;6054;50.966;7.094;2023-07-29T16:32:24;29.30;58.10
11989;DHT22;6054;50.966;7.094;2023-07-29T16:34:50;29.30;57.80
11989;DHT22;6054;50.966;7.094;2023-07-29T16:37:17;29.30;58.00
11989;DHT22;6054;50.966;7.094;2023-07-29T16:39:45;29.30;58.10
11989;DHT22;6054;50.966;7.094;2023-07-29T16:42:12;29.30;57.80
11989;DHT22;6054;50.966;7.094;2023-07-29T16:44:39;29.30;57.90
11989;DHT22;6054;50.966;7.094;2023-07-29T16:47:07;29.30;58.10
11989;DHT22;6054;50.966;7.094;2023-07-29T16:49:33;29.30;58.50
11989;DHT22;6054;50.966;7.094;2023-07-29T16:52:00;29.40;58.70
11989;DHT22;6054;50.966;7.094;2023-07-29T16:54:27;29.40;58.40
11989;DHT22;6054;50.966;7.094;2023-07-29T16:56:55;29.50;58.80
11989;DHT22;6054;50.966;7.094;2023-07-29T16:59:22;29.90;59.00
11989;DHT22;6054;50.966;7.094;2023-07-29T17:01:48;30.00;58.30
11989;DHT22;6054;50.966;7.094;2023-07-29T17:04:15;30.20;57.90
11989;DHT22;6054;50.966;7.094;2023-07-29T17:06:42;30.30;57.20
11989;DHT22;6054;50.966;7.094;2023-07-29T17:09:08;30.50;56.70
11989;DHT22;6054;50.966;7.094;2023-07-29T17:11:35;30.70;56.20
11989;DHT22;6054;50.966;7.094;2023-07-29T17:14:03;30.60;55.80
11989;DHT22;6054;50.966;7.094;2023-07-29T17:16:30;30.50;55.60